createdAt,value
2017-04-21T00:00:34.073Z,7.35
2017-04-21T00:01:14.598Z,7.32
2017-04-21T00:01:55.209Z,7.35
2017-04-21T00:02:36.299Z,7.29
2017-04-21T00:03:16.891Z,7.29
2017-04-21T00:03:57.407Z,7.31
2017-04-21T00:04:38.008Z,7.31
2017-04-21T00:05:18.699Z,7.31
2017-04-21T00:05:59.300Z,7.35
2017-04-21T00:06:39.796Z,7.29
2017-04-21T00:07:25.342Z,7.33
2017-04-21T00:08:05.921Z,7.31
2017-04-21T00:08:46.514Z,7.31
2017-04-21T00:09:27.061Z,7.33
2017-04-21T00:10:08.684Z,7.29
2017-04-21T00:10:49.281Z,7.28
2017-04-21T00:11:29.945Z,7.33
2017-04-21T00:12:10.454Z,7.33
2017-04-21T00:12:51.102Z,7.29
2017-04-21T00:13:31.674Z,7.36
2017-04-21T00:14:12.193Z,7.35
2017-04-21T00:14:53.455Z,7.31
2017-04-21T00:15:34.072Z,7.25
2017-04-21T00:16:14.647Z,7.35
2017-04-21T00:16:55.299Z,7.28
2017-04-21T00:17:36.857Z,7.24
2017-04-21T00:18:17.379Z,7.35
2017-04-21T00:19:03.921Z,7.35
2017-04-21T00:19:44.458Z,7.33
2017-04-21T00:20:26.039Z,7.24
2017-04-21T00:21:07.630Z,7.24
2017-04-21T00:21:48.278Z,7.24
2017-04-21T00:22:29.880Z,7.33
2017-04-21T00:23:11.512Z,7.23
2017-04-21T00:23:53.141Z,7.25
2017-04-21T00:24:33.733Z,7.23
2017-04-21T00:25:15.301Z,7.23
2017-04-21T00:25:55.879Z,7.24
2017-04-21T00:26:36.520Z,7.29
2017-04-21T00:27:17.077Z,7.24
2017-04-21T00:27:57.614Z,7.21
2017-04-21T00:28:38.174Z,7.18
2017-04-21T00:29:21.940Z,7.24
2017-04-21T00:30:02.431Z,7.28
2017-04-21T00:30:43.082Z,7.2
2017-04-21T00:31:24.662Z,7.15
2017-04-21T00:32:05.223Z,7.23
2017-04-21T00:32:45.767Z,7.2
2017-04-21T00:33:26.328Z,7.17
2017-04-21T00:34:06.873Z,7.13
2017-04-21T00:34:48.495Z,7.17
2017-04-21T00:35:29.094Z,7.13
2017-04-21T00:36:09.606Z,7.17
2017-04-21T00:36:51.226Z,7.1
2017-04-21T00:37:31.811Z,7.14
2017-04-21T00:38:12.410Z,7.07
2017-04-21T00:38:52.954Z,7.1
2017-04-21T00:39:33.532Z,7.06
2017-04-21T00:40:14.119Z,7.05
2017-04-21T00:40:56.762Z,6.97
2017-04-21T00:41:37.294Z,7
2017-04-21T00:42:17.908Z,7
2017-04-21T00:42:58.468Z,6.87
2017-04-21T00:43:39.069Z,6.95
2017-04-21T00:44:19.606Z,6.92
2017-04-21T00:45:01.201Z,6.88
2017-04-21T00:45:42.821Z,6.84
2017-04-21T00:46:23.448Z,6.82
2017-04-21T00:47:03.990Z,6.77
2017-04-21T00:47:44.524Z,6.78
2017-04-21T00:48:25.141Z,6.75
2017-04-21T00:49:05.721Z,6.66
2017-04-21T00:49:46.241Z,6.72
2017-04-21T00:50:26.850Z,6.67
2017-04-21T00:51:07.446Z,6.74
2017-04-21T00:51:48.032Z,6.66
2017-04-21T00:52:28.555Z,6.59
2017-04-21T00:53:10.173Z,6.62
2017-04-21T00:53:50.768Z,6.57
2017-04-21T00:54:31.362Z,6.62
2017-04-21T00:55:11.885Z,6.56
2017-04-21T00:55:53.516Z,6.51
2017-04-21T00:56:34.088Z,6.49
2017-04-21T00:57:14.712Z,6.51
2017-04-21T00:57:55.241Z,6.49
2017-04-21T00:58:35.825Z,6.52
2017-04-21T00:59:16.392Z,6.49
2017-04-21T00:59:57.935Z,6.44
2017-04-21T01:00:43.406Z,6.49
2017-04-21T01:01:24.497Z,6.51
2017-04-21T01:02:05.135Z,6.54
2017-04-21T01:02:45.756Z,6.51
2017-04-21T01:03:26.428Z,6.46
2017-04-21T01:04:07.067Z,6.45
2017-04-21T01:04:47.651Z,6.51
2017-04-21T01:05:28.250Z,6.44
2017-04-21T01:06:08.768Z,6.51
2017-04-21T01:06:49.353Z,6.51
2017-04-21T01:07:29.947Z,6.41
2017-04-21T01:08:10.543Z,6.49
2017-04-21T01:08:51.069Z,6.49
2017-04-21T01:09:31.656Z,6.57
2017-04-21T01:10:12.226Z,6.48
2017-04-21T01:10:52.764Z,6.51
2017-04-21T01:11:33.325Z,6.51
2017-04-21T01:12:13.963Z,6.54
2017-04-21T01:12:54.515Z,6.51
2017-04-21T01:13:35.161Z,6.51
2017-04-21T01:14:15.717Z,6.51
2017-04-21T01:14:56.266Z,6.54
2017-04-21T01:15:36.818Z,6.54
2017-04-21T01:16:17.374Z,6.59
2017-04-21T01:16:57.918Z,6.62
2017-04-21T01:17:38.468Z,6.62
2017-04-21T01:18:19.016Z,6.54
2017-04-21T01:18:59.587Z,6.57
2017-04-21T01:19:40.136Z,6.67
2017-04-21T01:20:20.662Z,6.6
2017-04-21T01:21:01.224Z,6.59
2017-04-21T01:21:41.764Z,6.57
2017-04-21T01:22:22.346Z,6.57
2017-04-21T01:23:02.888Z,6.64
2017-04-21T01:23:43.429Z,6.54
2017-04-21T01:24:23.980Z,6.62
2017-04-21T01:25:04.588Z,6.57
2017-04-21T01:25:46.191Z,6.59
2017-04-21T01:26:26.690Z,6.59
2017-04-21T01:27:07.317Z,6.63
2017-04-21T01:27:47.895Z,6.54
2017-04-21T01:28:28.493Z,6.59
2017-04-21T01:29:09.018Z,6.59
2017-04-21T01:29:49.608Z,6.56
2017-04-21T01:30:30.172Z,6.56
2017-04-21T01:31:10.708Z,6.6
2017-04-21T01:31:51.266Z,6.59
2017-04-21T01:32:32.826Z,6.52
2017-04-21T01:33:13.430Z,6.54
2017-04-21T01:33:53.997Z,6.57
2017-04-21T01:34:34.595Z,6.52
2017-04-21T01:35:15.132Z,6.46
2017-04-21T01:35:55.713Z,6.46
2017-04-21T01:36:36.244Z,6.52
2017-04-21T01:37:16.803Z,6.39
2017-04-21T01:37:57.352Z,6.39
2017-04-21T01:38:37.989Z,6.33
2017-04-21T01:39:18.550Z,6.36
2017-04-21T01:39:59.188Z,6.31
2017-04-21T01:40:39.728Z,6.35
2017-04-21T01:41:20.312Z,6.24
2017-04-21T01:42:00.839Z,6.39
2017-04-21T01:42:41.353Z,6.36
2017-04-21T01:43:21.963Z,6.24
2017-04-21T01:44:02.597Z,6.26
2017-04-21T01:44:43.111Z,6.19
2017-04-21T01:45:23.710Z,6.22
2017-04-21T01:46:04.349Z,6.22
2017-04-21T01:46:44.865Z,6.35
2017-04-21T01:47:25.474Z,6.31
2017-04-21T01:48:06.105Z,6.19
2017-04-21T01:48:46.619Z,6.31
2017-04-21T01:49:27.235Z,6.31
2017-04-21T01:50:07.789Z,6.35
2017-04-21T01:50:48.414Z,6.39
2017-04-21T01:51:28.965Z,6.35
2017-04-21T01:52:09.528Z,6.3
2017-04-21T01:52:50.068Z,6.38
2017-04-21T01:53:30.621Z,6.31
2017-04-21T01:54:12.005Z,6.33
2017-04-21T01:54:52.567Z,6.35
2017-04-21T01:55:33.213Z,6.38
2017-04-21T01:56:13.749Z,6.41
2017-04-21T01:56:54.294Z,6.45
2017-04-21T01:57:34.840Z,6.33
2017-04-21T01:58:15.423Z,6.35
2017-04-21T01:58:55.963Z,6.36
2017-04-21T01:59:36.503Z,6.49
2017-04-21T02:00:17.096Z,6.51
2017-04-21T02:00:57.695Z,6.48
2017-04-21T02:01:38.195Z,6.51
2017-04-21T02:02:18.809Z,6.48
2017-04-21T02:02:59.502Z,6.54
2017-04-21T02:03:40.104Z,6.44
2017-04-21T02:04:21.294Z,6.57
2017-04-21T02:05:01.944Z,6.59
2017-04-21T02:05:42.482Z,6.6
2017-04-21T02:06:23.048Z,6.56
2017-04-21T02:07:03.600Z,6.57
2017-04-21T02:07:44.145Z,6.54
2017-04-21T02:08:24.779Z,6.62
2017-04-21T02:09:05.336Z,6.57
2017-04-21T02:09:45.887Z,6.59
2017-04-21T02:10:26.434Z,6.62
2017-04-21T02:11:06.990Z,6.63
2017-04-21T02:11:47.551Z,6.59
2017-04-21T02:12:28.090Z,6.51
2017-04-21T02:13:08.658Z,6.69
2017-04-21T02:13:49.292Z,6.63
2017-04-21T02:14:29.842Z,6.67
2017-04-21T02:15:10.399Z,6.66
2017-04-21T02:15:51.052Z,6.6
2017-04-21T02:16:31.618Z,6.6
2017-04-21T02:17:12.260Z,6.74
2017-04-21T02:17:52.916Z,6.63
2017-04-21T02:18:33.558Z,6.57
2017-04-21T02:19:14.121Z,6.62
2017-04-21T02:19:54.707Z,6.75
2017-04-21T02:20:35.300Z,6.69
2017-04-21T02:21:15.819Z,6.57
2017-04-21T02:21:56.411Z,6.64
2017-04-21T02:22:37.006Z,6.72
2017-04-21T02:23:17.604Z,6.67
2017-04-21T02:23:58.120Z,6.66
2017-04-21T02:24:38.732Z,6.72
2017-04-21T02:25:19.255Z,6.75
2017-04-21T02:25:59.804Z,6.64
2017-04-21T02:26:40.373Z,6.66
2017-04-21T02:27:21.010Z,6.7
2017-04-21T02:28:01.533Z,6.67
2017-04-21T02:28:42.125Z,6.63
2017-04-21T02:29:22.763Z,6.7
2017-04-21T02:30:03.310Z,6.66
2017-04-21T02:30:43.865Z,6.69
2017-04-21T02:31:24.425Z,6.67
2017-04-21T02:32:04.970Z,6.79
2017-04-21T02:32:45.518Z,6.7
2017-04-21T02:33:26.062Z,6.66
2017-04-21T02:34:06.616Z,6.77
2017-04-21T02:34:47.141Z,6.74
2017-04-21T02:35:27.749Z,6.74
2017-04-21T02:36:08.319Z,6.69
2017-04-21T02:36:48.929Z,6.79
2017-04-21T02:37:29.421Z,6.74
2017-04-21T02:38:10.082Z,6.72
2017-04-21T02:38:50.633Z,6.84
2017-04-21T02:39:31.251Z,6.75
2017-04-21T02:40:11.753Z,6.72
2017-04-21T02:40:52.332Z,6.85
2017-04-21T02:41:32.903Z,6.84
2017-04-21T02:42:13.450Z,6.81
2017-04-21T02:42:54.000Z,6.78
2017-04-21T02:43:34.557Z,6.7
2017-04-21T02:44:15.084Z,6.7
2017-04-21T02:44:55.633Z,6.72
2017-04-21T02:45:36.145Z,6.66
2017-04-21T02:46:16.737Z,6.74
2017-04-21T02:46:57.290Z,6.7
2017-04-21T02:47:37.805Z,6.78
2017-04-21T02:48:18.398Z,6.77
2017-04-21T02:48:58.940Z,6.78
2017-04-21T02:49:39.466Z,6.77
2017-04-21T02:50:20.060Z,6.72
2017-04-21T02:51:01.630Z,6.75
2017-04-21T02:51:42.166Z,6.72
2017-04-21T02:52:22.731Z,6.81
2017-04-21T02:53:03.266Z,6.78
2017-04-21T02:53:43.825Z,6.78
2017-04-21T02:54:24.384Z,6.79
2017-04-21T02:55:04.941Z,6.78
2017-04-21T02:55:45.469Z,6.75
2017-04-21T02:56:26.043Z,6.78
2017-04-21T02:57:06.568Z,6.79
2017-04-21T02:57:47.144Z,6.78
2017-04-21T02:58:27.693Z,6.78
2017-04-21T02:59:09.265Z,6.79
2017-04-21T02:59:49.821Z,6.79
2017-04-21T03:00:30.345Z,6.75
2017-04-21T03:01:11.714Z,6.75
2017-04-21T03:01:52.297Z,6.81
2017-04-21T03:02:32.825Z,6.78
2017-04-21T03:03:13.381Z,6.74
2017-04-21T03:03:53.943Z,6.72
2017-04-21T03:04:35.493Z,6.79
2017-04-21T03:05:16.040Z,6.79
2017-04-21T03:05:56.608Z,6.81
2017-04-21T03:06:37.156Z,6.74
2017-04-21T03:07:17.701Z,6.75
2017-04-21T03:07:58.262Z,6.78
2017-04-21T03:08:38.818Z,6.79
2017-04-21T03:09:19.344Z,6.78
2017-04-21T03:09:59.912Z,6.84
2017-04-21T03:10:40.459Z,6.84
2017-04-21T03:11:21.022Z,6.85
2017-04-21T03:12:02.587Z,6.78
2017-04-21T03:12:43.138Z,6.87
2017-04-21T03:13:23.688Z,6.78
2017-04-21T03:14:04.333Z,6.88
2017-04-21T03:14:44.923Z,6.84
2017-04-21T03:15:25.535Z,6.88
2017-04-21T03:16:06.091Z,6.82
2017-04-21T03:16:46.649Z,6.84
2017-04-21T03:17:27.308Z,6.84
2017-04-21T03:18:07.862Z,6.87
2017-04-21T03:18:48.396Z,6.87
2017-04-21T03:19:28.950Z,6.81
2017-04-21T03:20:09.514Z,6.84
2017-04-21T03:20:50.066Z,6.87
2017-04-21T03:21:31.639Z,6.89
2017-04-21T03:22:12.293Z,6.82
2017-04-21T03:22:52.825Z,6.88
2017-04-21T03:23:33.380Z,6.89
2017-04-21T03:24:13.935Z,6.88
2017-04-21T03:24:54.580Z,6.79
2017-04-21T03:25:35.151Z,6.84
2017-04-21T03:26:15.704Z,6.85
2017-04-21T03:26:57.271Z,6.84
2017-04-21T03:27:37.813Z,6.88
2017-04-21T03:28:18.361Z,6.87
2017-04-21T03:28:58.920Z,6.93
2017-04-21T03:29:39.477Z,6.85
2017-04-21T03:30:20.057Z,6.93
2017-04-21T03:31:00.559Z,6.87
2017-04-21T03:31:41.116Z,6.93
2017-04-21T03:32:21.750Z,6.87
2017-04-21T03:33:02.270Z,6.88
2017-04-21T03:33:42.879Z,6.82
2017-04-21T03:34:23.456Z,6.87
2017-04-21T03:35:04.000Z,6.96
2017-04-21T03:35:44.555Z,6.87
2017-04-21T03:36:25.113Z,6.84
2017-04-21T03:37:05.658Z,6.82
2017-04-21T03:37:46.205Z,6.87
2017-04-21T03:38:26.930Z,6.97
2017-04-21T03:39:07.512Z,6.88
2017-04-21T03:39:48.070Z,6.85
2017-04-21T03:40:28.680Z,6.93
2017-04-21T03:41:09.234Z,6.85
2017-04-21T03:41:49.918Z,6.88
2017-04-21T03:42:30.528Z,6.85
2017-04-21T03:43:11.085Z,6.99
2017-04-21T03:43:51.637Z,6.95
2017-04-21T03:44:32.204Z,6.95
2017-04-21T03:45:12.776Z,6.99
2017-04-21T03:45:53.374Z,6.85
2017-04-21T03:46:33.898Z,6.82
2017-04-21T03:47:14.497Z,6.95
2017-04-21T03:47:55.083Z,6.95
2017-04-21T03:48:35.683Z,6.96
2017-04-21T03:49:16.210Z,6.95
2017-04-21T03:49:56.796Z,6.84
2017-04-21T03:50:37.349Z,6.89
2017-04-21T03:51:17.898Z,6.96
2017-04-21T03:51:58.451Z,6.96
2017-04-21T03:52:38.991Z,6.92
2017-04-21T03:53:19.543Z,6.97
2017-04-21T03:54:00.104Z,6.96
2017-04-21T03:54:40.666Z,6.87
2017-04-21T03:55:21.199Z,7
2017-04-21T03:56:01.758Z,6.96
2017-04-21T03:56:42.288Z,6.93
2017-04-21T03:57:22.849Z,6.96
2017-04-21T03:58:03.391Z,6.95
2017-04-21T03:58:43.977Z,6.97
2017-04-21T03:59:24.499Z,6.87
2017-04-21T04:00:05.064Z,6.93
2017-04-21T04:00:45.721Z,6.97
2017-04-21T04:01:26.262Z,6.89
2017-04-21T04:02:06.850Z,6.95
2017-04-21T04:02:47.448Z,6.95
2017-04-21T04:03:27.974Z,7
2017-04-21T04:04:08.580Z,6.95
2017-04-21T04:04:49.130Z,6.97
2017-04-21T04:05:29.653Z,6.99
2017-04-21T04:06:10.215Z,7.03
2017-04-21T04:06:50.780Z,6.95
2017-04-21T04:07:31.333Z,6.88
2017-04-21T04:08:11.971Z,7
2017-04-21T04:08:52.535Z,6.93
2017-04-21T04:09:33.077Z,6.96
2017-04-21T04:10:13.670Z,6.99
2017-04-21T04:10:54.260Z,6.97
2017-04-21T04:11:34.776Z,6.99
2017-04-21T04:12:15.390Z,6.99
2017-04-21T04:12:55.967Z,7.03
2017-04-21T04:13:36.571Z,6.97
2017-04-21T04:14:17.089Z,7.02
2017-04-21T04:14:58.711Z,6.99
2017-04-21T04:15:39.312Z,7.03
2017-04-21T04:16:19.901Z,6.96
2017-04-21T04:17:00.435Z,6.97
2017-04-21T04:17:40.994Z,6.96
2017-04-21T04:18:21.613Z,6.99
2017-04-21T04:19:02.198Z,6.99
2017-04-21T04:19:42.731Z,6.99
2017-04-21T04:20:23.433Z,7.06
2017-04-21T04:21:04.004Z,7.07
2017-04-21T04:21:44.608Z,7.02
2017-04-21T04:22:25.183Z,6.99
2017-04-21T04:23:05.898Z,7.03
2017-04-21T04:23:46.420Z,7.06
2017-04-21T04:24:27.011Z,7.1
2017-04-21T04:25:07.562Z,6.97
2017-04-21T04:25:48.204Z,6.97
2017-04-21T04:26:28.663Z,7
2017-04-21T04:27:09.210Z,7.02
2017-04-21T04:27:49.773Z,7.03
2017-04-21T04:28:30.316Z,7
2017-04-21T04:29:10.865Z,6.96
2017-04-21T04:29:51.378Z,7
2017-04-21T04:30:33.019Z,7.13
2017-04-21T04:31:13.645Z,7.1
2017-04-21T04:31:54.150Z,7.13
2017-04-21T04:32:34.744Z,7.1
2017-04-21T04:33:15.398Z,6.99
2017-04-21T04:33:55.902Z,6.99
2017-04-21T04:34:36.525Z,7.13
2017-04-21T04:35:17.235Z,7.11
2017-04-21T04:35:57.670Z,6.95
2017-04-21T04:36:38.268Z,7
2017-04-21T04:37:18.803Z,7
2017-04-21T04:37:59.336Z,7.02
2017-04-21T04:38:39.922Z,7
2017-04-21T04:39:20.557Z,6.99
2017-04-21T04:40:01.087Z,7.07
2017-04-21T04:40:42.688Z,7.05
2017-04-21T04:41:23.295Z,7.05
2017-04-21T04:42:03.997Z,7.06
2017-04-21T04:42:44.395Z,7.17
2017-04-21T04:43:24.989Z,7.1
2017-04-21T04:44:05.591Z,7.1
2017-04-21T04:44:46.197Z,7.13
2017-04-21T04:45:26.740Z,7.13
2017-04-21T04:46:07.306Z,7.2
2017-04-21T04:46:47.839Z,7.13
2017-04-21T04:47:28.393Z,7.18
2017-04-21T04:48:08.942Z,7.24
2017-04-21T04:48:49.494Z,7.24
2017-04-21T04:49:30.044Z,7.17
2017-04-21T04:50:10.594Z,7.14
2017-04-21T04:50:51.148Z,7.21
2017-04-21T04:51:31.698Z,7.2
2017-04-21T04:52:12.246Z,7.17
2017-04-21T04:52:52.798Z,7.2
2017-04-21T04:53:33.375Z,7.21
2017-04-21T04:54:14.002Z,7.18
2017-04-21T04:54:54.519Z,7.24
2017-04-21T04:55:35.114Z,7.28
2017-04-21T04:56:15.824Z,7.25
2017-04-21T04:56:56.408Z,7.29
2017-04-21T04:57:36.939Z,7.23
2017-04-21T04:58:17.504Z,7.25
2017-04-21T04:58:58.115Z,7.32
2017-04-21T04:59:38.708Z,7.31
2017-04-21T05:00:19.232Z,7.29
2017-04-21T05:00:59.865Z,7.33
2017-04-21T05:01:40.462Z,7.32
2017-04-21T05:02:21.039Z,7.29
2017-04-21T05:03:01.590Z,7.31
2017-04-21T05:03:42.141Z,7.28
2017-04-21T05:04:22.668Z,7.33
2017-04-21T05:05:03.241Z,7.31
2017-04-21T05:05:43.804Z,7.28
2017-04-21T05:06:24.375Z,7.33
2017-04-21T05:07:05.369Z,7.29
2017-04-21T05:07:45.930Z,7.25
2017-04-21T05:08:26.695Z,7.31
2017-04-21T05:09:07.943Z,7.23
2017-04-21T05:09:48.634Z,7.24
2017-04-21T05:10:29.159Z,7.35
2017-04-21T05:11:09.716Z,7.29
2017-04-21T05:11:50.695Z,7.31
2017-04-21T05:12:31.933Z,7.33
2017-04-21T05:13:12.954Z,7.33
2017-04-21T05:13:53.869Z,7.29
2017-04-21T05:14:34.707Z,7.32
2017-04-21T05:15:15.477Z,7.25
2017-04-21T05:15:56.510Z,7.36
2017-04-21T05:16:37.089Z,7.29
2017-04-21T05:17:17.745Z,7.31
2017-04-21T05:17:58.482Z,7.24
2017-04-21T05:18:40.284Z,7.31
2017-04-21T05:19:20.835Z,7.31
2017-04-21T05:20:01.385Z,7.35
2017-04-21T05:20:41.943Z,7.38
2017-04-21T05:21:22.477Z,7.35
2017-04-21T05:22:03.203Z,7.35
2017-04-21T05:22:43.888Z,7.35
2017-04-21T05:23:24.527Z,7.36
2017-04-21T05:24:05.370Z,7.4
2017-04-21T05:24:46.141Z,7.38
2017-04-21T05:25:27.013Z,7.4
2017-04-21T05:26:08.543Z,7.36
2017-04-21T05:26:49.245Z,7.4
2017-04-21T05:27:30.022Z,7.38
2017-04-21T05:28:10.745Z,7.39
2017-04-21T05:28:51.489Z,7.5
2017-04-21T05:29:33.208Z,7.42
2017-04-21T05:30:13.843Z,7.42
2017-04-21T05:30:54.549Z,7.39
2017-04-21T05:31:35.075Z,7.51
2017-04-21T05:32:15.932Z,7.47
2017-04-21T05:32:56.788Z,7.47
2017-04-21T05:33:37.464Z,7.42
2017-04-21T05:34:17.978Z,7.47
2017-04-21T05:34:58.570Z,7.42
2017-04-21T05:35:39.189Z,7.57
2017-04-21T05:36:19.881Z,7.51
2017-04-21T05:37:00.452Z,7.51
2017-04-21T05:37:41.147Z,7.5
2017-04-21T05:38:21.781Z,7.5
2017-04-21T05:39:02.493Z,7.6
2017-04-21T05:39:43.258Z,7.57
2017-04-21T05:40:23.907Z,7.57
2017-04-21T05:41:04.513Z,7.56
2017-04-21T05:41:45.100Z,7.57
2017-04-21T05:42:25.617Z,7.63
2017-04-21T05:43:06.212Z,7.57
2017-04-21T05:43:46.801Z,7.57
2017-04-21T05:44:27.394Z,7.58
2017-04-21T05:45:07.913Z,7.63
2017-04-21T05:45:48.560Z,7.58
2017-04-21T05:46:29.195Z,7.53
2017-04-21T05:47:09.718Z,7.53
2017-04-21T05:47:50.315Z,7.6
2017-04-21T05:48:36.677Z,7.69
2017-04-21T05:49:17.420Z,7.66
2017-04-21T05:50:09.163Z,7.6
2017-04-21T05:50:56.495Z,7.7
2017-04-21T05:51:39.180Z,7.7
2017-04-21T05:52:31.507Z,7.7
2017-04-21T05:53:24.041Z,7.69
2017-04-21T05:54:05.625Z,7.7
2017-04-21T05:54:48.315Z,7.72
2017-04-21T05:55:30.035Z,7.7
2017-04-21T05:56:11.751Z,7.76
2017-04-21T05:56:52.276Z,7.8
2017-04-21T05:57:39.624Z,7.8
2017-04-21T06:53:41.694Z,8.88
2017-04-21T06:54:22.406Z,8.88
2017-04-21T06:55:03.064Z,8.89
2017-04-21T06:55:55.294Z,9.03
2017-04-21T06:56:37.015Z,9.03
2017-04-21T06:57:17.576Z,9.03
2017-04-21T06:57:58.138Z,9.11
2017-04-21T06:58:38.643Z,9.18
2017-04-21T06:59:21.479Z,9.18
2017-04-21T07:00:03.102Z,9.21
2017-04-21T07:00:43.675Z,9.21
2017-04-21T07:01:24.460Z,9.25
2017-04-21T07:02:05.110Z,9.28
2017-04-21T07:02:45.619Z,9.43
2017-04-21T07:03:26.341Z,9.41
2017-04-21T07:04:06.901Z,9.36
2017-04-21T07:04:47.475Z,9.51
2017-04-21T07:05:28.043Z,9.54
2017-04-21T07:06:13.445Z,9.5
2017-04-21T07:06:54.145Z,9.56
2017-04-21T07:07:34.836Z,9.69
2017-04-21T07:08:15.439Z,9.68
2017-04-21T07:08:57.076Z,9.62
2017-04-21T07:09:43.054Z,9.65
2017-04-21T07:10:25.128Z,9.74
2017-04-21T07:11:05.781Z,9.76
2017-04-21T07:11:46.459Z,9.69
2017-04-21T07:12:27.193Z,9.72
2017-04-21T07:13:09.892Z,9.73
2017-04-21T07:17:21.757Z,9.72
2017-04-21T07:18:02.466Z,9.72
2017-04-21T07:18:44.194Z,9.65
2017-04-21T07:19:25.956Z,9.65
2017-04-21T07:20:07.348Z,9.73
2017-04-21T07:20:59.807Z,9.62
2017-04-21T07:21:40.353Z,9.69
2017-04-21T07:22:21.001Z,9.69
2017-04-21T07:23:01.665Z,9.77
2017-04-21T07:23:42.190Z,9.73
2017-04-21T07:24:22.903Z,9.79
2017-04-21T07:25:03.524Z,9.77
2017-04-21T07:25:55.341Z,9.73
2017-04-21T07:26:40.804Z,9.74
2017-04-21T07:27:23.506Z,9.66
2017-04-21T07:39:38.289Z,9.65
2017-04-21T07:40:19.419Z,9.69
2017-04-21T07:41:01.610Z,9.79
2017-04-21T07:41:43.416Z,9.68
2017-04-21T07:42:24.141Z,9.79
2017-04-21T07:43:04.809Z,9.84
2017-04-21T07:43:47.488Z,9.82
2017-04-21T07:44:30.348Z,9.87
2017-04-21T07:45:16.712Z,9.87
2017-04-21T07:46:08.190Z,9.94
2017-04-21T07:46:53.776Z,9.91
2017-04-21T07:47:34.448Z,9.84
2017-04-21T07:48:26.732Z,9.89
2017-04-21T07:49:12.194Z,9.91
2017-04-21T07:49:52.876Z,9.84
2017-04-21T07:50:33.515Z,9.89
2017-04-21T07:51:19.018Z,9.92
2017-04-21T07:51:59.713Z,9.94
2017-04-21T07:52:40.211Z,9.95
2017-04-21T07:53:21.848Z,9.82
2017-04-21T07:54:02.569Z,9.84
2017-04-21T07:54:44.266Z,9.84
2017-04-21T07:55:24.813Z,9.87
2017-04-21T07:56:05.489Z,9.89
2017-04-21T07:56:46.248Z,9.79
2017-04-21T07:57:26.896Z,9.84
2017-04-21T07:58:07.438Z,9.83
2017-04-21T07:58:48.096Z,9.79
2017-04-21T07:59:28.792Z,9.69
2017-04-21T08:00:10.554Z,9.77
2017-04-21T08:00:51.129Z,9.69
2017-04-21T08:01:31.718Z,9.73
2017-04-21T08:02:12.473Z,9.79
2017-04-21T08:02:53.128Z,9.69
2017-04-21T08:03:33.834Z,9.76
2017-04-21T08:04:16.489Z,9.72
2017-04-21T08:04:57.134Z,9.74
2017-04-21T08:05:37.887Z,9.74
2017-04-21T08:06:19.571Z,9.89
2017-04-21T08:07:00.085Z,9.94
2017-04-21T08:07:40.768Z,9.95
2017-04-21T08:08:22.500Z,9.97
2017-04-21T08:09:03.197Z,10.02
2017-04-21T08:09:43.756Z,10.13
2017-04-21T08:10:30.236Z,10.1
2017-04-21T08:11:11.957Z,10.13
2017-04-21T08:11:53.621Z,10.12
2017-04-21T08:12:47.261Z,10.13
2017-04-21T08:13:27.934Z,10.09
2017-04-21T08:14:10.636Z,9.99
2017-04-21T08:14:51.274Z,9.97
2017-04-21T08:15:33.986Z,9.97
2017-04-21T08:16:14.672Z,10.04
2017-04-21T08:16:56.300Z,10.13
2017-04-21T08:17:36.816Z,10.09
2017-04-21T08:18:18.539Z,10.02
2017-04-21T08:19:01.276Z,10.05
2017-04-21T08:19:46.902Z,10.13
2017-04-21T08:20:27.408Z,10.1
2017-04-21T08:21:09.133Z,10.07
2017-04-21T08:21:50.822Z,10.09
2017-04-21T08:22:32.493Z,10.09
2017-04-21T08:23:15.202Z,10.09
2017-04-21T08:24:02.703Z,10.19
2017-04-21T08:24:43.344Z,10.16
2017-04-21T08:25:24.084Z,10.3
2017-04-21T08:26:06.811Z,10.28
2017-04-21T08:26:54.250Z,10.23
2017-04-21T08:27:35.914Z,10.41
2017-04-21T08:28:16.968Z,10.46
2017-04-21T08:28:58.637Z,10.53
2017-04-21T08:29:39.282Z,10.56
2017-04-21T08:30:20.768Z,10.59
2017-04-21T08:31:02.722Z,10.48
2017-04-21T08:31:44.518Z,10.53
2017-04-21T08:32:26.318Z,10.48
2017-04-21T08:33:07.976Z,10.51
2017-04-21T08:33:48.684Z,10.63
2017-04-21T08:34:34.909Z,10.64
2017-04-21T08:35:15.516Z,10.68
2017-04-21T08:35:56.231Z,10.64
2017-04-21T08:36:37.894Z,10.68
2017-04-21T08:37:18.420Z,10.68
2017-04-21T08:37:58.998Z,10.64
2017-04-21T08:38:39.645Z,10.72
2017-04-21T08:39:20.420Z,10.82
2017-04-21T08:40:03.119Z,10.9
2017-04-21T08:40:54.302Z,11.05
2017-04-21T08:41:35.156Z,11.26
2017-04-21T08:42:17.198Z,11.3
2017-04-21T08:42:58.025Z,11.33
2017-04-21T08:43:39.766Z,11.41
2017-04-21T08:44:23.123Z,11.43
2017-04-21T08:45:09.674Z,11.55
2017-04-21T08:45:51.283Z,11.48
2017-04-21T08:46:33.451Z,11.5
2017-04-21T08:47:14.597Z,11.6
2017-04-21T08:47:55.120Z,11.55
2017-04-21T08:48:37.794Z,11.48
2017-04-21T08:49:18.293Z,11.48
2017-04-21T08:49:58.879Z,11.44
2017-04-21T08:51:21.045Z,11.43
2017-04-21T08:52:01.695Z,11.4
2017-04-21T08:52:43.422Z,11.32
2017-04-21T08:53:24.949Z,11.19
2017-04-21T08:54:18.398Z,11.18
2017-04-21T08:54:58.960Z,11.19
2017-04-21T08:55:40.728Z,11.14
2017-04-21T08:56:23.294Z,11.18
2017-04-21T08:57:03.931Z,11.19
2017-04-21T08:57:44.504Z,11.07
2017-04-21T08:58:29.649Z,10.99
2017-04-21T08:59:10.446Z,10.96
2017-04-21T08:59:51.099Z,10.9
2017-04-21T09:00:31.719Z,10.87
2017-04-21T09:01:13.297Z,10.76
2017-04-21T09:01:54.848Z,10.74
2017-04-21T09:02:36.421Z,10.69
2017-04-21T09:03:17.025Z,10.72
2017-04-21T09:03:57.639Z,10.67
2017-04-21T09:04:38.405Z,10.71
2017-04-21T09:05:21.280Z,10.68
2017-04-21T09:06:05.476Z,10.76
2017-04-21T09:06:47.113Z,10.81
2017-04-21T09:07:34.622Z,10.74
2017-04-21T09:08:16.201Z,10.74
2017-04-21T09:09:02.030Z,10.74
2017-04-21T09:09:44.580Z,10.74
2017-04-21T09:10:25.640Z,10.64
2017-04-21T09:11:08.959Z,10.63
2017-04-21T09:11:56.701Z,10.69
2017-04-21T09:12:37.039Z,10.76
2017-04-21T09:13:18.979Z,10.72
2017-04-21T09:14:05.613Z,10.75
2017-04-21T09:14:46.234Z,10.71
2017-04-21T09:15:28.295Z,10.71
2017-04-21T09:16:14.882Z,10.78
2017-04-21T09:16:55.814Z,10.76
2017-04-21T09:17:36.353Z,10.78
2017-04-21T09:18:17.014Z,10.78
2017-04-21T09:18:57.668Z,10.75
2017-04-21T09:19:38.311Z,10.81
2017-04-21T09:20:19.096Z,10.84
2017-04-21T09:20:59.817Z,10.87
2017-04-21T09:21:41.895Z,10.86
2017-04-21T09:22:23.517Z,10.81
2017-04-21T09:23:05.990Z,10.87
2017-04-21T09:23:47.131Z,10.93
2017-04-21T09:24:39.689Z,11.02
2017-04-21T09:25:35.931Z,11.18
2017-04-21T09:26:18.548Z,11.08
2017-04-21T09:27:05.092Z,11.12
2017-04-21T09:27:58.484Z,11.23
2017-04-21T09:28:41.071Z,11.32
2017-04-21T09:29:21.741Z,11.37
2017-04-21T09:30:16.920Z,11.37
2017-04-21T09:31:09.452Z,11.44
2017-04-21T09:31:52.077Z,11.5
2017-04-21T09:32:39.461Z,11.57
2017-04-21T09:33:20.122Z,11.57
2017-04-21T09:34:01.799Z,11.62
2017-04-21T09:34:42.452Z,11.66
2017-04-21T09:35:24.145Z,11.77
2017-04-21T09:36:04.652Z,11.83
2017-04-21T09:36:45.294Z,11.83
2017-04-21T09:37:31.862Z,11.94
2017-04-21T09:38:12.382Z,11.84
2017-04-21T09:38:52.983Z,11.87
2017-04-21T09:39:34.777Z,11.94
2017-04-21T09:40:15.351Z,12.03
2017-04-21T09:41:01.680Z,12.18
2017-04-21T09:41:44.334Z,12.18
2017-04-21T09:42:29.848Z,12.36
2017-04-21T09:43:10.388Z,12.43
2017-04-21T09:43:57.736Z,12.55
2017-04-21T09:44:40.361Z,12.79
2017-04-21T09:45:20.958Z,12.9
2017-04-21T09:46:01.724Z,13.08
2017-04-21T09:46:42.374Z,13.27
2017-04-21T09:47:23.021Z,13.37
2017-04-21T09:48:03.679Z,13.47
2017-04-21T09:48:44.325Z,13.53
2017-04-21T09:49:24.979Z,13.52
2017-04-21T09:50:05.640Z,13.47
2017-04-21T09:50:46.273Z,13.38
2017-04-21T09:51:27.046Z,13.44
2017-04-21T09:52:08.911Z,13.38
2017-04-21T09:52:49.442Z,13.42
2017-04-21T09:53:31.986Z,13.37
2017-04-21T09:54:19.381Z,13.47
2017-04-21T09:54:59.915Z,13.46
2017-04-21T09:55:40.499Z,13.52
2017-04-21T09:56:21.086Z,13.46
2017-04-21T09:57:06.394Z,13.46
2017-04-21T09:57:46.907Z,13.54
2017-04-21T09:58:34.181Z,13.57
2017-04-21T09:59:14.771Z,13.57
2017-04-21T09:59:56.582Z,13.54
2017-04-21T10:00:41.126Z,13.62
2017-04-21T10:01:23.880Z,13.7
2017-04-21T10:02:04.609Z,13.83
2017-04-21T10:02:45.301Z,13.93
2017-04-21T10:03:25.844Z,13.92
2017-04-21T10:04:06.524Z,14.04
2017-04-21T10:04:47.211Z,14.2
2017-04-21T10:05:27.914Z,14.3
2017-04-21T10:06:08.461Z,14.4
2017-04-21T10:06:49.152Z,14.48
2017-04-21T10:07:29.830Z,14.58
2017-04-21T10:08:10.519Z,14.6
2017-04-21T10:08:51.060Z,14.66
2017-04-21T10:09:31.764Z,14.78
2017-04-21T10:10:12.441Z,14.92
2017-04-21T10:10:53.134Z,15.09
2017-04-21T10:11:33.801Z,15.17
2017-04-21T10:12:14.647Z,15.21
2017-04-21T10:12:55.300Z,15.25
2017-04-21T10:13:36.053Z,15.4
2017-04-21T10:14:16.704Z,15.49
2017-04-21T10:14:57.368Z,15.51
2017-04-21T10:15:38.027Z,15.55
2017-04-21T10:16:19.999Z,15.64
2017-04-21T10:17:00.651Z,15.68
2017-04-21T10:17:41.300Z,15.76
2017-04-21T10:18:21.958Z,15.7
2017-04-21T10:19:02.709Z,15.77